sensor_id;sensor_type;location;lat;lon;timestamp;temperature;humidity
14182;DHT22;7171;50.936;6.764;2023-04-24T00:00:06;13.40;99.90
14182;DHT22;7171;50.936;6.764;2023-04-24T00:02:34;13.40;99.90
14182;DHT22;7171;50.936;6.764;2023-04-24T00:05:03;13.40;99.90
14182;DHT22;7171;50.936;6.764;2023-04-24T00:07:31;13.40;99.90
14182;DHT22;7171;50.936;6.764;2023-04-24T00:09:57;13.30;99.90
14182;DHT22;7171;50.936;6.764;2023-04-24T00:12:26;13.30;99.90
14182;DHT22;7171;50.936;6.764;2023-04-24T00:14:53;13.30;99.90
14182;DHT22;7171;50.936;6.764;2023-04-24T00:17:20;13.30;99.90
14182;DHT22;7171;50.936;6.764;2023-04-24T00:19:47;13.30;99.90
14182;DHT22;7171;50.936;6.764;2023-04-24T00:22:14;13.20;99.90
14182;DHT22;7171;50.936;6.764;2023-04-24T00:24:41;13.20;99.90
14182;DHT22;7171;50.936;6.764;2023-04-24T00:27:07;13.20;99.90
14182;DHT22;7171;50.936;6.764;2023-04-24T00:29:35;13.20;99.90
14182;DHT22;7171;50.936;6.764;2023-04-24T00:32:02;13.20;99.90
14182;DHT22;7171;50.936;6.764;2023-04-24T00:34:29;13.20;99.90
14182;DHT22;7171;50.936;6.764;2023-04-24T00:36:57;13.20;99.90
14182;DHT22;7171;50.936;6.764;2023-04-24T00:39:24;13.20;99.90
14182;DHT22;7171;50.936;6.764;2023-04-24T00:41:51;13.10;99.90
14182;DHT22;7171;50.936;6.764;2023-04-24T00:44:20;13.20;99.90
14182;DHT22;7171;50.936;6.764;2023-04-24T00:46:48;13.10;99.90
14182;DHT22;7171;50.936;6.764;2023-04-24T00:49:20;13.10;99.90
14182;DHT22;7171;50.936;6.764;2023-04-24T00:51:47;13.10;99.90
14182;DHT22;7171;50.936;6.764;2023-04-24T00:54:14;13.10;99.90
14182;DHT22;7171;50.936;6.764;2023-04-24T00:56:42;13.00;99.90
14182;DHT22;7171;50.936;6.764;2023-04-24T00:59:09;13.00;99.90
14182;DHT22;7171;50.936;6.764;2023-04-24T01:01:36;12.90;99.90
14182;DHT22;7171;50.936;6.764;2023-04-24T01:04:04;12.90;99.90
14182;DHT22;7171;50.936;6.764;2023-04-24T01:06:33;12.90;99.90
14182;DHT22;7171;50.936;6.764;2023-04-24T01:09:00;12.90;99.90
14182;DHT22;7171;50.936;6.764;2023-04-24T01:11:29;12.80;99.90
14182;DHT22;7171;50.936;6.764;2023-04-24T01:13:56;12.80;99.90
14182;DHT22;7171;50.936;6.764;2023-04-24T01:16:24;12.70;99.90
14182;DHT22;7171;50.936;6.764;2023-04-24T01:18:51;12.70;99.90
14182;DHT22;7171;50.936;6.764;2023-04-24T01:21:20;12.60;99.90
14182;DHT22;7171;50.936;6.764;2023-04-24T01:23:49;12.50;99.90
14182;DHT22;7171;50.936;6.764;2023-04-24T01:26:17;12.40;99.90
14182;DHT22;7171;50.936;6.764;2023-04-24T01:28:46;12.40;99.90
14182;DHT22;7171;50.936;6.764;2023-04-24T01:31:12;12.40;99.90
14182;DHT22;7171;50.936;6.764;2023-04-24T01:33:41;12.30;99.90
14182;DHT22;7171;50.936;6.764;2023-04-24T01:36:08;12.20;99.90
14182;DHT22;7171;50.936;6.764;2023-04-24T01:38:37;12.10;99.90
14182;DHT22;7171;50.936;6.764;2023-04-24T01:41:05;12.10;99.90
14182;DHT22;7171;50.936;6.764;2023-04-24T01:43:31;12.00;99.90
14182;DHT22;7171;50.936;6.764;2023-04-24T01:45:58;12.00;99.90
14182;DHT22;7171;50.936;6.764;2023-04-24T01:48:25;12.10;99.90
14182;DHT22;7171;50.936;6.764;2023-04-24T01:50:52;12.00;99.90
14182;DHT22;7171;50.936;6.764;2023-04-24T01:53:19;11.80;99.90
14182;DHT22;7171;50.936;6.764;2023-04-24T01:55:46;11.60;99.90
14182;DHT22;7171;50.936;6.764;2023-04-24T01:58:14;11.60;99.90
14182;DHT22;7171;50.936;6.764;2023-04-24T02:00:41;11.50;99.90
14182;DHT22;7171;50.936;6.764;2023-04-24T02:03:08;11.60;99.90
14182;DHT22;7171;50.936;6.764;2023-04-24T02:05:35;11.60;99.90
14182;DHT22;7171;50.936;6.764;2023-04-24T02:08:01;11.40;99.90
14182;DHT22;7171;50.936;6.764;2023-04-24T02:10:28;11.30;99.90
14182;DHT22;7171;50.936;6.764;2023-04-24T02:12:55;11.30;99.90
14182;DHT22;7171;50.936;6.764;2023-04-24T02:15:23;11.20;99.90
14182;DHT22;7171;50.936;6.764;2023-04-24T02:17:50;11.20;99.90
14182;DHT22;7171;50.936;6.764;2023-04-24T02:20:16;11.20;99.90
14182;DHT22;7171;50.936;6.764;2023-04-24T02:22:44;11.30;99.90
14182;DHT22;7171;50.936;6.764;2023-04-24T02:25:11;11.10;99.90
14182;DHT22;7171;50.936;6.764;2023-04-24T02:27:37;11.10;99.90
14182;DHT22;7171;50.936;6.764;2023-04-24T02:30:05;11.20;99.90
14182;DHT22;7171;50.936;6.764;2023-04-24T02:32:34;11.10;99.90
14182;DHT22;7171;50.936;6.764;2023-04-24T02:35:01;11.20;99.90
14182;DHT22;7171;50.936;6.764;2023-04-24T02:37:27;11.20;99.90
14182;DHT22;7171;50.936;6.764;2023-04-24T02:39:54;11.20;99.90
14182;DHT22;7171;50.936;6.764;2023-04-24T02:42:21;11.20;99.90
14182;DHT22;7171;50.936;6.764;2023-04-24T02:44:48;11.30;99.90
14182;DHT22;7171;50.936;6.764;2023-04-24T02:47:16;11.40;99.90
14182;DHT22;7171;50.936;6.764;2023-04-24T02:49:44;11.30;99.90
14182;DHT22;7171;50.936;6.764;2023-04-24T02:52:11;11.30;99.90
14182;DHT22;7171;50.936;6.764;2023-04-24T02:54:38;11.30;99.90
14182;DHT22;7171;50.936;6.764;2023-04-24T02:57:05;11.30;99.90
14182;DHT22;7171;50.936;6.764;2023-04-24T02:59:32;11.30;99.90
14182;DHT22;7171;50.936;6.764;2023-04-24T03:01:59;11.30;99.90
14182;DHT22;7171;50.936;6.764;2023-04-24T03:04:26;11.30;99.90
14182;DHT22;7171;50.936;6.764;2023-04-24T03:06:54;11.30;99.90
14182;DHT22;7171;50.936;6.764;2023-04-24T03:09:22;11.30;99.90
14182;DHT22;7171;50.936;6.764;2023-04-24T03:11:49;11.30;99.90
14182;DHT22;7171;50.936;6.764;2023-04-24T03:14:16;11.30;99.90
14182;DHT22;7171;50.936;6.764;2023-04-24T03:16:43;11.30;99.90
14182;DHT22;7171;50.936;6.764;2023-04-24T03:19:10;11.30;99.90
14182;DHT22;7171;50.936;6.764;2023-04-24T03:21:36;11.30;99.90
14182;DHT22;7171;50.936;6.764;2023-04-24T03:24:07;11.20;99.90
14182;DHT22;7171;50.936;6.764;2023-04-24T03:26:34;11.20;99.90
14182;DHT22;7171;50.936;6.764;2023-04-24T03:29:01;11.10;99.90
14182;DHT22;7171;50.936;6.764;2023-04-24T03:31:28;11.10;99.90
14182;DHT22;7171;50.936;6.764;2023-04-24T03:33:54;11.00;99.90
14182;DHT22;7171;50.936;6.764;2023-04-24T03:36:21;11.10;99.90
14182;DHT22;7171;50.936;6.764;2023-04-24T03:38:48;11.10;99.90
14182;DHT22;7171;50.936;6.764;2023-04-24T03:41:16;11.10;99.90
14182;DHT22;7171;50.936;6.764;2023-04-24T03:43:43;11.10;99.90
14182;DHT22;7171;50.936;6.764;2023-04-24T03:46:10;11.10;99.90
14182;DHT22;7171;50.936;6.764;2023-04-24T03:48:36;11.10;99.90
14182;DHT22;7171;50.936;6.764;2023-04-24T03:51:03;11.10;99.90
14182;DHT22;7171;50.936;6.764;2023-04-24T03:53:30;11.10;99.90
14182;DHT22;7171;50.936;6.764;2023-04-24T03:55:57;11.10;99.90
14182;DHT22;7171;50.936;6.764;2023-04-24T03:58:25;11.10;99.90
14182;DHT22;7171;50.936;6.764;2023-04-24T04:00:52;11.10;99.90
14182;DHT22;7171;50.936;6.764;2023-04-24T04:03:19;11.20;99.90
14182;DHT22;7171;50.936;6.764;2023-04-24T04:05:46;11.20;99.90
14182;DHT22;7171;50.936;6.764;2023-04-24T04:08:12;11.20;99.90
14182;DHT22;7171;50.936;6.764;2023-04-24T04:10:39;11.30;99.90
14182;DHT22;7171;50.936;6.764;2023-04-24T04:13:06;11.20;99.90
14182;DHT22;7171;50.936;6.764;2023-04-24T04:15:34;11.20;99.90
14182;DHT22;7171;50.936;6.764;2023-04-24T04:18:01;11.20;99.90
14182;DHT22;7171;50.936;6.764;2023-04-24T04:20:28;11.20;99.90
14182;DHT22;7171;50.936;6.764;2023-04-24T04:22:54;11.20;99.90
14182;DHT22;7171;50.936;6.764;2023-04-24T04:25:21;11.30;99.90
14182;DHT22;7171;50.936;6.764;2023-04-24T04:27:48;11.20;99.90
14182;DHT22;7171;50.936;6.764;2023-04-24T04:30:16;11.30;99.90
14182;DHT22;7171;50.936;6.764;2023-04-24T04:32:44;11.10;99.90
14182;DHT22;7171;50.936;6.764;2023-04-24T04:35:13;11.30;99.90
14182;DHT22;7171;50.936;6.764;2023-04-24T04:37:40;11.10;99.90
14182;DHT22;7171;50.936;6.764;2023-04-24T04:40:08;11.10;99.90
14182;DHT22;7171;50.936;6.764;2023-04-24T04:42:37;11.10;99.90
14182;DHT22;7171;50.936;6.764;2023-04-24T04:45:06;11.10;99.90
14182;DHT22;7171;50.936;6.764;2023-04-24T04:47:34;11.10;99.90
14182;DHT22;7171;50.936;6.764;2023-04-24T04:50:03;11.10;99.90
14182;DHT22;7171;50.936;6.764;2023-04-24T04:52:30;11.10;99.90
14182;DHT22;7171;50.936;6.764;2023-04-24T04:54:57;11.20;99.90
14182;DHT22;7171;50.936;6.764;2023-04-24T04:57:24;11.20;99.90
14182;DHT22;7171;50.936;6.764;2023-04-24T04:59:51;11.20;99.90
14182;DHT22;7171;50.936;6.764;2023-04-24T05:02:18;11.30;99.90
14182;DHT22;7171;50.936;6.764;2023-04-24T05:04:45;11.30;99.90
14182;DHT22;7171;50.936;6.764;2023-04-24T05:07:13;11.20;99.90
14182;DHT22;7171;50.936;6.764;2023-04-24T05:09:39;11.30;99.90
14182;DHT22;7171;50.936;6.764;2023-04-24T05:12:06;11.30;99.90
14182;DHT22;7171;50.936;6.764;2023-04-24T05:14:33;11.30;99.90
14182;DHT22;7171;50.936;6.764;2023-04-24T05:17:00;11.30;99.90
14182;DHT22;7171;50.936;6.764;2023-04-24T05:19:28;11.30;99.90
14182;DHT22;7171;50.936;6.764;2023-04-24T05:21:54;11.30;99.90
14182;DHT22;7171;50.936;6.764;2023-04-24T05:24:23;11.20;99.90
14182;DHT22;7171;50.936;6.764;2023-04-24T05:26:49;11.20;99.90
14182;DHT22;7171;50.936;6.764;2023-04-24T05:29:16;11.20;99.90
14182;DHT22;7171;50.936;6.764;2023-04-24T05:31:44;11.20;99.90
14182;DHT22;7171;50.936;6.764;2023-04-24T05:34:11;11.20;99.90
14182;DHT22;7171;50.936;6.764;2023-04-24T05:36:38;11.20;99.90
14182;DHT22;7171;50.936;6.764;2023-04-24T05:39:05;11.20;99.90
14182;DHT22;7171;50.936;6.764;2023-04-24T05:41:33;11.20;99.90
14182;DHT22;7171;50.936;6.764;2023-04-24T05:43:59;11.20;99.90
14182;DHT22;7171;50.936;6.764;2023-04-24T05:46:26;11.10;99.90
14182;DHT22;7171;50.936;6.764;2023-04-24T05:48:53;11.10;99.90
14182;DHT22;7171;50.936;6.764;2023-04-24T05:51:20;11.10;99.90
14182;DHT22;7171;50.936;6.764;2023-04-24T05:53:46;11.10;99.90
14182;DHT22;7171;50.936;6.764;2023-04-24T05:56:13;11.10;99.90
14182;DHT22;7171;50.936;6.764;2023-04-24T05:58:42;11.10;99.90
14182;DHT22;7171;50.936;6.764;2023-04-24T06:01:09;11.10;99.90
14182;DHT22;7171;50.936;6.764;2023-04-24T06:03:36;11.10;99.90
14182;DHT22;7171;50.936;6.764;2023-04-24T06:06:03;11.00;99.90
14182;DHT22;7171;50.936;6.764;2023-04-24T06:08:30;11.00;99.90
14182;DHT22;7171;50.936;6.764;2023-04-24T06:10:58;11.00;99.90
14182;DHT22;7171;50.936;6.764;2023-04-24T06:13:25;11.00;99.90
14182;DHT22;7171;50.936;6.764;2023-04-24T06:15:53;10.90;99.90
14182;DHT22;7171;50.936;6.764;2023-04-24T06:18:20;10.90;99.90
14182;DHT22;7171;50.936;6.764;2023-04-24T06:20:46;10.90;99.90
14182;DHT22;7171;50.936;6.764;2023-04-24T06:23:13;10.80;99.90
14182;DHT22;7171;50.936;6.764;2023-04-24T06:25:40;10.80;99.90
14182;DHT22;7171;50.936;6.764;2023-04-24T06:28:07;10.80;99.90
14182;DHT22;7171;50.936;6.764;2023-04-24T06:30:34;10.80;99.90
14182;DHT22;7171;50.936;6.764;2023-04-24T06:33:02;10.80;99.90
14182;DHT22;7171;50.936;6.764;2023-04-24T06:35:28;10.70;99.90
14182;DHT22;7171;50.936;6.764;2023-04-24T06:37:55;10.60;99.90
14182;DHT22;7171;50.936;6.764;2023-04-24T06:40:22;10.60;99.90
14182;DHT22;7171;50.936;6.764;2023-04-24T06:42:49;10.50;99.90
14182;DHT22;7171;50.936;6.764;2023-04-24T06:45:16;10.40;99.90
14182;DHT22;7171;50.936;6.764;2023-04-24T06:47:43;10.30;99.90
14182;DHT22;7171;50.936;6.764;2023-04-24T06:50:11;10.20;99.90
14182;DHT22;7171;50.936;6.764;2023-04-24T06:52:38;10.10;99.90
14182;DHT22;7171;50.936;6.764;2023-04-24T06:55:06;10.10;99.90
14182;DHT22;7171;50.936;6.764;2023-04-24T06:57:33;10.10;99.90
14182;DHT22;7171;50.936;6.764;2023-04-24T07:00:00;10.10;99.90
14182;DHT22;7171;50.936;6.764;2023-04-24T07:02:26;10.00;99.90
14182;DHT22;7171;50.936;6.764;2023-04-24T07:04:53;10.00;99.90
14182;DHT22;7171;50.936;6.764;2023-04-24T07:07:21;10.00;99.90
14182;DHT22;7171;50.936;6.764;2023-04-24T07:09:49;10.00;99.90
14182;DHT22;7171;50.936;6.764;2023-04-24T07:12:16;9.90;99.90
14182;DHT22;7171;50.936;6.764;2023-04-24T07:14:45;9.90;99.90
14182;DHT22;7171;50.936;6.764;2023-04-24T07:17:12;9.90;99.90
14182;DHT22;7171;50.936;6.764;2023-04-24T07:19:40;9.80;99.90
14182;DHT22;7171;50.936;6.764;2023-04-24T07:22:07;9.60;99.90
14182;DHT22;7171;50.936;6.764;2023-04-24T07:24:35;9.60;99.90
14182;DHT22;7171;50.936;6.764;2023-04-24T07:27:02;9.40;99.90
14182;DHT22;7171;50.936;6.764;2023-04-24T07:29:29;9.40;99.90
14182;DHT22;7171;50.936;6.764;2023-04-24T07:31:56;9.30;99.90
14182;DHT22;7171;50.936;6.764;2023-04-24T07:34:22;9.20;99.90
14182;DHT22;7171;50.936;6.764;2023-04-24T07:36:49;9.10;99.90
14182;DHT22;7171;50.936;6.764;2023-04-24T07:39:16;9.00;99.90
14182;DHT22;7171;50.936;6.764;2023-04-24T07:41:44;8.90;99.90
14182;DHT22;7171;50.936;6.764;2023-04-24T07:44:11;8.80;99.90
14182;DHT22;7171;50.936;6.764;2023-04-24T07:46:38;8.70;99.90
14182;DHT22;7171;50.936;6.764;2023-04-24T07:49:05;8.60;99.90
14182;DHT22;7171;50.936;6.764;2023-04-24T07:51:31;8.50;99.90
14182;DHT22;7171;50.936;6.764;2023-04-24T07:54:03;8.40;99.90
14182;DHT22;7171;50.936;6.764;2023-04-24T07:56:30;8.40;99.90
14182;DHT22;7171;50.936;6.764;2023-04-24T07:58:58;8.30;99.90
14182;DHT22;7171;50.936;6.764;2023-04-24T08:01:25;8.30;99.90
14182;DHT22;7171;50.936;6.764;2023-04-24T08:03:52;8.20;99.90
14182;DHT22;7171;50.936;6.764;2023-04-24T08:06:19;8.20;99.90
14182;DHT22;7171;50.936;6.764;2023-04-24T08:08:45;8.20;99.90
14182;DHT22;7171;50.936;6.764;2023-04-24T08:11:12;8.10;99.90
14182;DHT22;7171;50.936;6.764;2023-04-24T08:13:39;8.10;99.90
14182;DHT22;7171;50.936;6.764;2023-04-24T08:16:07;8.00;99.90
14182;DHT22;7171;50.936;6.764;2023-04-24T08:18:34;8.00;99.90
14182;DHT22;7171;50.936;6.764;2023-04-24T08:21:01;7.90;99.90
14182;DHT22;7171;50.936;6.764;2023-04-24T08:23:28;7.90;99.90
14182;DHT22;7171;50.936;6.764;2023-04-24T08:25:55;7.80;99.90
14182;DHT22;7171;50.936;6.764;2023-04-24T08:28:22;7.70;99.90
14182;DHT22;7171;50.936;6.764;2023-04-24T08:30:49;7.70;99.90
14182;DHT22;7171;50.936;6.764;2023-04-24T08:33:22;7.60;99.90
14182;DHT22;7171;50.936;6.764;2023-04-24T08:35:49;7.60;99.90
14182;DHT22;7171;50.936;6.764;2023-04-24T08:38:15;7.50;99.90
14182;DHT22;7171;50.936;6.764;2023-04-24T08:40:42;7.50;99.90
14182;DHT22;7171;50.936;6.764;2023-04-24T08:43:12;7.50;99.90
14182;DHT22;7171;50.936;6.764;2023-04-24T08:45:39;7.50;99.90
14182;DHT22;7171;50.936;6.764;2023-04-24T08:48:07;7.50;99.90
14182;DHT22;7171;50.936;6.764;2023-04-24T08:50:39;7.50;99.90
14182;DHT22;7171;50.936;6.764;2023-04-24T08:53:08;7.50;99.90
14182;DHT22;7171;50.936;6.764;2023-04-24T08:55:36;7.50;99.90
14182;DHT22;7171;50.936;6.764;2023-04-24T08:58:04;7.50;99.90
14182;DHT22;7171;50.936;6.764;2023-04-24T09:00:31;7.60;99.90
14182;DHT22;7171;50.936;6.764;2023-04-24T09:03:00;7.60;99.90
14182;DHT22;7171;50.936;6.764;2023-04-24T09:05:28;7.60;99.90
14182;DHT22;7171;50.936;6.764;2023-04-24T09:07:57;7.60;99.90
14182;DHT22;7171;50.936;6.764;2023-04-24T09:10:24;7.60;99.90
14182;DHT22;7171;50.936;6.764;2023-04-24T09:12:52;7.70;99.90
14182;DHT22;7171;50.936;6.764;2023-04-24T09:15:19;7.70;99.90
14182;DHT22;7171;50.936;6.764;2023-04-24T09:17:47;7.80;99.90
14182;DHT22;7171;50.936;6.764;2023-04-24T09:20:14;7.90;99.90
14182;DHT22;7171;50.936;6.764;2023-04-24T09:22:42;7.90;99.90
14182;DHT22;7171;50.936;6.764;2023-04-24T09:25:10;8.00;99.90
14182;DHT22;7171;50.936;6.764;2023-04-24T09:27:42;8.10;99.90
14182;DHT22;7171;50.936;6.764;2023-04-24T09:30:10;8.10;99.90
14182;DHT22;7171;50.936;6.764;2023-04-24T09:32:37;8.20;99.90
14182;DHT22;7171;50.936;6.764;2023-04-24T09:35:08;8.20;99.90
14182;DHT22;7171;50.936;6.764;2023-04-24T09:37:37;8.30;99.90
14182;DHT22;7171;50.936;6.764;2023-04-24T09:40:14;8.40;99.90
14182;DHT22;7171;50.936;6.764;2023-04-24T09:42:43;8.40;99.90
14182;DHT22;7171;50.936;6.764;2023-04-24T09:45:10;8.40;99.90
14182;DHT22;7171;50.936;6.764;2023-04-24T09:47:38;8.50;99.90
14182;DHT22;7171;50.936;6.764;2023-04-24T09:50:13;8.60;99.90
14182;DHT22;7171;50.936;6.764;2023-04-24T09:52:42;8.60;99.90
14182;DHT22;7171;50.936;6.764;2023-04-24T09:55:19;8.60;99.90
14182;DHT22;7171;50.936;6.764;2023-04-24T09:57:50;8.60;99.90
14182;DHT22;7171;50.936;6.764;2023-04-24T10:00:24;8.70;99.90
14182;DHT22;7171;50.936;6.764;2023-04-24T10:02:56;8.90;99.90
14182;DHT22;7171;50.936;6.764;2023-04-24T10:05:24;8.70;99.90
14182;DHT22;7171;50.936;6.764;2023-04-24T10:07:52;8.90;99.90
14182;DHT22;7171;50.936;6.764;2023-04-24T10:10:23;8.90;99.90
14182;DHT22;7171;50.936;6.764;2023-04-24T10:12:51;9.00;99.90
14182;DHT22;7171;50.936;6.764;2023-04-24T10:15:18;9.10;99.90
14182;DHT22;7171;50.936;6.764;2023-04-24T10:17:47;9.10;99.90
14182;DHT22;7171;50.936;6.764;2023-04-24T10:20:18;9.20;99.90
14182;DHT22;7171;50.936;6.764;2023-04-24T10:22:47;9.30;99.90
14182;DHT22;7171;50.936;6.764;2023-04-24T10:25:16;9.30;99.90
14182;DHT22;7171;50.936;6.764;2023-04-24T10:30:13;9.50;99.90
14182;DHT22;7171;50.936;6.764;2023-04-24T10:32:40;9.50;99.90
14182;DHT22;7171;50.936;6.764;2023-04-24T10:35:08;9.60;99.90
14182;DHT22;7171;50.936;6.764;2023-04-24T10:37:37;9.60;99.90
14182;DHT22;7171;50.936;6.764;2023-04-24T10:40:06;9.70;99.90
14182;DHT22;7171;50.936;6.764;2023-04-24T10:42:33;9.70;99.90
14182;DHT22;7171;50.936;6.764;2023-04-24T10:45:06;9.80;99.90
14182;DHT22;7171;50.936;6.764;2023-04-24T10:47:39;9.80;99.90
14182;DHT22;7171;50.936;6.764;2023-04-24T10:50:08;9.80;99.90
14182;DHT22;7171;50.936;6.764;2023-04-24T10:52:45;9.90;99.90
14182;DHT22;7171;50.936;6.764;2023-04-24T10:55:13;9.90;99.90
14182;DHT22;7171;50.936;6.764;2023-04-24T10:58:01;10.00;99.90
14182;DHT22;7171;50.936;6.764;2023-04-24T11:00:29;10.00;99.90
14182;DHT22;7171;50.936;6.764;2023-04-24T11:02:57;10.10;99.90
14182;DHT22;7171;50.936;6.764;2023-04-24T11:05:49;10.10;99.90
14182;DHT22;7171;50.936;6.764;2023-04-24T11:08:24;10.10;99.90
14182;DHT22;7171;50.936;6.764;2023-04-24T11:10:57;10.10;99.90
14182;DHT22;7171;50.936;6.764;2023-04-24T11:13:25;10.30;99.90
14182;DHT22;7171;50.936;6.764;2023-04-24T11:16:16;10.20;99.90
14182;DHT22;7171;50.936;6.764;2023-04-24T11:18:50;10.30;99.90
14182;DHT22;7171;50.936;6.764;2023-04-24T11:21:20;10.40;99.90
14182;DHT22;7171;50.936;6.764;2023-04-24T11:23:47;10.50;99.90
14182;DHT22;7171;50.936;6.764;2023-04-24T11:26:18;10.50;99.90
14182;DHT22;7171;50.936;6.764;2023-04-24T11:28:46;10.60;99.90
14182;DHT22;7171;50.936;6.764;2023-04-24T11:31:37;10.60;99.90
14182;DHT22;7171;50.936;6.764;2023-04-24T11:34:08;10.70;99.90
14182;DHT22;7171;50.936;6.764;2023-04-24T11:36:36;10.80;99.90
14182;DHT22;7171;50.936;6.764;2023-04-24T11:39:03;10.80;99.90
14182;DHT22;7171;50.936;6.764;2023-04-24T11:41:30;10.90;99.90
14182;DHT22;7171;50.936;6.764;2023-04-24T11:43:57;11.00;99.90
14182;DHT22;7171;50.936;6.764;2023-04-24T11:46:27;11.00;99.90
14182;DHT22;7171;50.936;6.764;2023-04-24T11:48:56;11.10;99.90
14182;DHT22;7171;50.936;6.764;2023-04-24T11:51:23;11.20;99.90
14182;DHT22;7171;50.936;6.764;2023-04-24T11:53:52;11.30;99.90
14182;DHT22;7171;50.936;6.764;2023-04-24T11:56:19;11.40;99.90
14182;DHT22;7171;50.936;6.764;2023-04-24T11:58:46;11.40;99.90
14182;DHT22;7171;50.936;6.764;2023-04-24T12:01:13;11.20;99.90
14182;DHT22;7171;50.936;6.764;2023-04-24T12:03:40;11.60;99.90
14182;DHT22;7171;50.936;6.764;2023-04-24T12:06:11;11.70;99.90
14182;DHT22;7171;50.936;6.764;2023-04-24T12:08:39;11.70;99.90
14182;DHT22;7171;50.936;6.764;2023-04-24T12:11:07;11.80;99.90
14182;DHT22;7171;50.936;6.764;2023-04-24T12:13:34;11.90;99.90
14182;DHT22;7171;50.936;6.764;2023-04-24T12:16:02;11.90;99.90
14182;DHT22;7171;50.936;6.764;2023-04-24T12:18:30;11.90;99.90
14182;DHT22;7171;50.936;6.764;2023-04-24T12:21:16;12.00;99.90
14182;DHT22;7171;50.936;6.764;2023-04-24T12:23:44;11.90;99.90
14182;DHT22;7171;50.936;6.764;2023-04-24T12:26:11;11.90;99.90
14182;DHT22;7171;50.936;6.764;2023-04-24T12:28:38;12.10;99.90
14182;DHT22;7171;50.936;6.764;2023-04-24T12:31:06;12.00;99.90
14182;DHT22;7171;50.936;6.764;2023-04-24T12:33:34;12.00;99.90
14182;DHT22;7171;50.936;6.764;2023-04-24T12:36:01;12.10;99.90
14182;DHT22;7171;50.936;6.764;2023-04-24T12:38:29;12.20;99.90
14182;DHT22;7171;50.936;6.764;2023-04-24T12:41:03;12.10;99.90
14182;DHT22;7171;50.936;6.764;2023-04-24T12:43:31;12.20;99.90
14182;DHT22;7171;50.936;6.764;2023-04-24T12:45:58;12.20;99.90
14182;DHT22;7171;50.936;6.764;2023-04-24T12:48:25;12.20;99.90
14182;DHT22;7171;50.936;6.764;2023-04-24T12:50:52;12.20;99.90
14182;DHT22;7171;50.936;6.764;2023-04-24T12:53:19;12.30;99.90
14182;DHT22;7171;50.936;6.764;2023-04-24T12:55:47;12.40;99.90
14182;DHT22;7171;50.936;6.764;2023-04-24T12:58:18;12.60;99.90
14182;DHT22;7171;50.936;6.764;2023-04-24T13:00:45;12.70;99.90
14182;DHT22;7171;50.936;6.764;2023-04-24T13:03:12;12.80;99.90
14182;DHT22;7171;50.936;6.764;2023-04-24T13:05:39;12.70;99.90
14182;DHT22;7171;50.936;6.764;2023-04-24T13:08:06;12.90;99.90
14182;DHT22;7171;50.936;6.764;2023-04-24T13:10:33;13.00;99.90
14182;DHT22;7171;50.936;6.764;2023-04-24T13:15:28;13.00;99.90
14182;DHT22;7171;50.936;6.764;2023-04-24T13:17:55;13.00;99.90
14182;DHT22;7171;50.936;6.764;2023-04-24T13:20:22;12.90;99.90
14182;DHT22;7171;50.936;6.764;2023-04-24T13:22:49;12.80;99.90
14182;DHT22;7171;50.936;6.764;2023-04-24T13:25:15;12.70;99.90
14182;DHT22;7171;50.936;6.764;2023-04-24T13:27:43;12.70;99.90
14182;DHT22;7171;50.936;6.764;2023-04-24T13:30:12;12.80;99.90
14182;DHT22;7171;50.936;6.764;2023-04-24T13:32:39;12.80;99.90
14182;DHT22;7171;50.936;6.764;2023-04-24T13:35:06;12.80;99.90
14182;DHT22;7171;50.936;6.764;2023-04-24T13:37:33;13.00;99.90
14182;DHT22;7171;50.936;6.764;2023-04-24T13:40:00;13.00;99.90
14182;DHT22;7171;50.936;6.764;2023-04-24T13:42:27;13.10;99.90
14182;DHT22;7171;50.936;6.764;2023-04-24T13:44:54;13.10;99.90
14182;DHT22;7171;50.936;6.764;2023-04-24T13:47:22;13.00;99.90
14182;DHT22;7171;50.936;6.764;2023-04-24T13:49:49;13.00;99.90
14182;DHT22;7171;50.936;6.764;2023-04-24T13:52:15;13.00;99.90
14182;DHT22;7171;50.936;6.764;2023-04-24T13:54:42;13.00;99.90
14182;DHT22;7171;50.936;6.764;2023-04-24T13:57:09;13.10;99.90
14182;DHT22;7171;50.936;6.764;2023-04-24T13:59:36;13.00;99.90
14182;DHT22;7171;50.936;6.764;2023-04-24T14:02:03;13.00;99.90
14182;DHT22;7171;50.936;6.764;2023-04-24T14:04:31;13.10;99.90
14182;DHT22;7171;50.936;6.764;2023-04-24T14:06:57;13.00;99.90
14182;DHT22;7171;50.936;6.764;2023-04-24T14:09:24;13.10;99.90
14182;DHT22;7171;50.936;6.764;2023-04-24T14:11:51;13.10;99.90
14182;DHT22;7171;50.936;6.764;2023-04-24T14:14:18;13.00;99.90
14182;DHT22;7171;50.936;6.764;2023-04-24T14:16:45;13.10;99.90
14182;DHT22;7171;50.936;6.764;2023-04-24T14:19:12;13.00;99.90
14182;DHT22;7171;50.936;6.764;2023-04-24T14:21:40;12.90;99.90
14182;DHT22;7171;50.936;6.764;2023-04-24T14:24:07;12.90;99.90
14182;DHT22;7171;50.936;6.764;2023-04-24T14:26:34;13.00;99.90
14182;DHT22;7171;50.936;6.764;2023-04-24T14:29:01;13.00;99.90
14182;DHT22;7171;50.936;6.764;2023-04-24T14:31:28;13.00;99.90
14182;DHT22;7171;50.936;6.764;2023-04-24T14:33:55;13.20;99.90
14182;DHT22;7171;50.936;6.764;2023-04-24T14:36:21;13.30;99.90
14182;DHT22;7171;50.936;6.764;2023-04-24T14:38:49;13.30;99.90
14182;DHT22;7171;50.936;6.764;2023-04-24T14:41:16;13.30;99.90
14182;DHT22;7171;50.936;6.764;2023-04-24T14:43:43;13.40;99.90
14182;DHT22;7171;50.936;6.764;2023-04-24T14:46:10;13.30;99.90
14182;DHT22;7171;50.936;6.764;2023-04-24T14:48:37;13.30;99.90
14182;DHT22;7171;50.936;6.764;2023-04-24T14:51:04;13.40;99.90
14182;DHT22;7171;50.936;6.764;2023-04-24T14:53:30;13.50;99.90
14182;DHT22;7171;50.936;6.764;2023-04-24T14:55:59;13.70;99.90
14182;DHT22;7171;50.936;6.764;2023-04-24T14:58:25;13.70;99.90
14182;DHT22;7171;50.936;6.764;2023-04-24T15:00:52;13.70;99.90
14182;DHT22;7171;50.936;6.764;2023-04-24T15:03:20;13.70;99.90
14182;DHT22;7171;50.936;6.764;2023-04-24T15:05:47;13.70;99.90
14182;DHT22;7171;50.936;6.764;2023-04-24T15:08:13;13.80;99.90
14182;DHT22;7171;50.936;6.764;2023-04-24T15:10:40;13.80;99.90
14182;DHT22;7171;50.936;6.764;2023-04-24T15:13:09;14.00;99.90
14182;DHT22;7171;50.936;6.764;2023-04-24T15:15:35;14.10;99.90
14182;DHT22;7171;50.936;6.764;2023-04-24T15:18:02;14.20;99.90
14182;DHT22;7171;50.936;6.764;2023-04-24T15:20:29;14.20;99.90
14182;DHT22;7171;50.936;6.764;2023-04-24T15:22:56;14.30;99.90
14182;DHT22;7171;50.936;6.764;2023-04-24T15:25:24;14.40;99.90
14182;DHT22;7171;50.936;6.764;2023-04-24T15:30:21;14.50;99.90
14182;DHT22;7171;50.936;6.764;2023-04-24T15:32:47;14.40;99.90
14182;DHT22;7171;50.936;6.764;2023-04-24T15:35:14;14.40;99.90
14182;DHT22;7171;50.936;6.764;2023-04-24T15:37:41;14.30;99.90
14182;DHT22;7171;50.936;6.764;2023-04-24T15:40:09;14.40;99.90
14182;DHT22;7171;50.936;6.764;2023-04-24T15:42:38;14.30;99.90
14182;DHT22;7171;50.936;6.764;2023-04-24T15:45:06;14.40;99.90
14182;DHT22;7171;50.936;6.764;2023-04-24T15:47:35;14.90;99.90
14182;DHT22;7171;50.936;6.764;2023-04-24T15:50:02;14.60;99.90
14182;DHT22;7171;50.936;6.764;2023-04-24T15:52:29;14.70;99.90
14182;DHT22;7171;50.936;6.764;2023-04-24T15:54:56;14.70;99.90
14182;DHT22;7171;50.936;6.764;2023-04-24T15:57:22;14.60;99.90
14182;DHT22;7171;50.936;6.764;2023-04-24T15:59:49;14.50;99.90